Avilla, Indiana
Current Conditions -  °F | °C
As of 2:55 AM on Saturday 20 Dec 2014 (Local Time) from KGWB Reporting Station
Haze Haze  
Wind Chill: -5°   Ceiling: Unl
Heat Index: -5°   Visibility: 4mi
Dew Point: -6°   Wind: 0mph
Humidity: 93%   Direction: NA
Pressure: 30.28"   Gusts: NA
Location:  41.37°N, 85.24°W
Report Text: KGWB 200755Z AUTO 00000KT 4SM BR CLR M05/M06 A3028 RMK AO2
Loading
Personal Weather Stations






























Interactive Weather Map New forecast layout! Learn more

10-Day Weather Forecast

Advertisements
Track Severe Weather on mobile